Pauma Valley, California
Current Conditions -  °F | °C
As of 9:55 AM on Saturday 25 Oct 2014 (Local Time) from KL18 Reporting Station
Overcast Overcast  
Wind Chill: 68°   Ceiling: 10000
Heat Index: 68°   Visibility: 10mi
Dew Point: 50°   Wind: 3mph
Humidity: 52%   Direction: 140°SE
Pressure: 30.07"   Gusts: NA
Location:  33.3°N, 116.98°W
Report Text: KL18 251655Z AUTO 14003KT 10SM OVC100 20/10 A3007 RMK AO2
Loading
Personal Weather Stations






























Interactive Weather Map New forecast layout! Learn more

10-Day Weather Forecast

Advertisements
Track Severe Weather on mobile